createdAt,value
2023-02-19T00:00:39.990Z,9.7
2023-02-19T00:01:39.992Z,9.7
2023-02-19T00:02:39.985Z,9.7
2023-02-19T00:03:40.112Z,9.7
2023-02-19T00:04:40.027Z,9.7
2023-02-19T00:05:39.986Z,9.7
2023-02-19T00:06:39.982Z,9.7
2023-02-19T00:07:39.988Z,9.7
2023-02-19T00:08:39.991Z,9.7
2023-02-19T00:09:39.983Z,9.6
2023-02-19T00:10:39.996Z,9.6
2023-02-19T00:11:39.988Z,9.6
2023-02-19T00:12:39.988Z,9.6
2023-02-19T00:13:39.983Z,9.6
2023-02-19T00:14:39.985Z,9.5
2023-02-19T00:15:40.001Z,9.5
2023-02-19T00:16:40.009Z,9.5
2023-02-19T00:17:39.983Z,9.4
2023-02-19T00:18:39.988Z,9.4
2023-02-19T00:19:39.985Z,9.4
2023-02-19T00:20:39.981Z,9.4
2023-02-19T00:21:39.993Z,9.4
2023-02-19T00:22:39.981Z,9.4
2023-02-19T00:23:39.984Z,9.4
2023-02-19T00:24:39.984Z,9.3
2023-02-19T00:25:39.988Z,9.3
2023-02-19T00:26:39.999Z,9.3
2023-02-19T00:27:39.984Z,9.3
2023-02-19T00:28:39.985Z,9.3
2023-02-19T00:29:39.991Z,9.3
2023-02-19T00:30:40.166Z,9.3
2023-02-19T00:31:40.016Z,9.3
2023-02-19T00:32:39.987Z,9.3
2023-02-19T00:33:39.996Z,9.3
2023-02-19T00:34:39.991Z,9.3
2023-02-19T00:35:39.991Z,9.3
2023-02-19T00:36:39.992Z,9.3
2023-02-19T00:37:39.990Z,9.4
2023-02-19T00:38:40.001Z,9.4
2023-02-19T00:39:40.008Z,9.4
2023-02-19T00:40:39.991Z,9.4
2023-02-19T00:41:39.986Z,9.4
2023-02-19T00:42:39.991Z,9.4
2023-02-19T00:43:39.993Z,9.4
2023-02-19T00:44:40.043Z,9.4
2023-02-19T00:45:39.991Z,9.4
2023-02-19T00:46:40.051Z,9.4
2023-02-19T00:47:39.988Z,9.4
2023-02-19T00:48:39.988Z,9.4
2023-02-19T00:49:39.985Z,9.4
2023-02-19T00:50:39.985Z,9.5
2023-02-19T00:51:39.989Z,9.5
2023-02-19T00:52:39.988Z,9.5
2023-02-19T00:53:39.996Z,9.5
2023-02-19T00:54:39.991Z,9.5
2023-02-19T00:55:39.992Z,9.5
2023-02-19T00:56:40.231Z,9.6
2023-02-19T00:57:39.994Z,9.6
2023-02-19T00:58:40.184Z,9.6
2023-02-19T00:59:39.993Z,9.6
2023-02-19T01:00:39.986Z,9.6
2023-02-19T01:01:40.070Z,9.6
2023-02-19T01:02:40.001Z,9.6
2023-02-19T01:03:39.992Z,9.7
2023-02-19T01:04:40.036Z,9.6
2023-02-19T01:05:39.984Z,9.7
2023-02-19T01:06:39.981Z,9.7
2023-02-19T01:07:39.983Z,9.7
2023-02-19T01:08:40.231Z,9.7
2023-02-19T01:09:40.486Z,9.7
2023-02-19T01:10:39.983Z,9.8
2023-02-19T01:11:40.302Z,9.8
2023-02-19T01:12:40.950Z,9.8
2023-02-19T01:13:39.992Z,9.8
2023-02-19T01:14:39.987Z,9.8
2023-02-19T01:15:40.250Z,9.8
2023-02-19T01:16:39.983Z,9.8
2023-02-19T01:17:40.268Z,9.8
2023-02-19T01:18:39.984Z,9.8
2023-02-19T01:19:39.979Z,9.8
2023-02-19T01:20:39.988Z,9.8
2023-02-19T01:21:40.030Z,9.8
2023-02-19T01:22:40.276Z,9.8
2023-02-19T01:23:40.133Z,9.8
2023-02-19T01:24:39.985Z,9.8
2023-02-19T01:25:40.145Z,9.8
2023-02-19T01:26:40.362Z,9.8
2023-02-19T01:27:40.223Z,9.8
2023-02-19T01:28:39.992Z,9.8
2023-02-19T01:29:39.984Z,9.8
2023-02-19T01:30:39.983Z,9.8
2023-02-19T01:31:40.078Z,9.8
2023-02-19T01:32:40.034Z,9.8
2023-02-19T01:33:39.983Z,9.8
2023-02-19T01:34:39.997Z,9.8
2023-02-19T01:35:39.986Z,9.8
2023-02-19T01:36:39.990Z,9.8
2023-02-19T01:37:40.031Z,9.8
2023-02-19T01:38:39.987Z,9.8
2023-02-19T01:39:40.029Z,9.8
2023-02-19T01:40:39.984Z,9.8
2023-02-19T01:41:39.986Z,9.8
2023-02-19T01:42:39.981Z,9.8
2023-02-19T01:43:39.980Z,9.8
2023-02-19T01:44:39.982Z,9.8
2023-02-19T01:45:39.994Z,9.8
2023-02-19T01:46:40.034Z,9.8
2023-02-19T01:47:39.989Z,9.8
2023-02-19T01:48:39.993Z,9.8
2023-02-19T01:49:39.988Z,9.8
2023-02-19T01:50:39.984Z,9.8
2023-02-19T01:51:39.985Z,9.7
2023-02-19T01:52:39.987Z,9.7
2023-02-19T01:53:40.096Z,9.7
2023-02-19T01:54:39.985Z,9.7
2023-02-19T01:55:39.983Z,9.7
2023-02-19T01:56:40.207Z,9.7
2023-02-19T01:57:39.981Z,9.7
2023-02-19T01:58:39.991Z,9.7
2023-02-19T01:59:39.989Z,9.7
2023-02-19T02:00:39.991Z,9.7
2023-02-19T02:01:40.070Z,9.7
2023-02-19T02:02:39.981Z,9.7
2023-02-19T02:03:39.982Z,9.6
2023-02-19T02:04:39.988Z,9.6
2023-02-19T02:05:39.989Z,9.6
2023-02-19T02:06:39.985Z,9.6
2023-02-19T02:07:40.005Z,9.6
2023-02-19T02:08:39.991Z,9.6
2023-02-19T02:09:39.980Z,9.6
2023-02-19T02:10:39.991Z,9.6
2023-02-19T02:11:39.987Z,9.6
2023-02-19T02:12:39.999Z,9.6
2023-02-19T02:13:39.985Z,9.6
2023-02-19T02:14:40.021Z,9.6
2023-02-19T02:15:39.992Z,9.6
2023-02-19T02:16:39.998Z,9.5
2023-02-19T02:17:40.003Z,9.5
2023-02-19T02:18:39.986Z,9.5
2023-02-19T02:19:39.999Z,9.5
2023-02-19T02:20:40.010Z,9.5
2023-02-19T02:21:39.992Z,9.5
2023-02-19T02:22:40.008Z,9.5
2023-02-19T02:23:39.996Z,9.4
2023-02-19T02:24:39.992Z,9.4
2023-02-19T02:25:39.992Z,9.4
2023-02-19T02:26:39.988Z,9.4
2023-02-19T02:27:40.000Z,9.4
2023-02-19T02:28:39.986Z,9.4
2023-02-19T02:29:39.992Z,9.4
2023-02-19T02:30:39.996Z,9.4
2023-02-19T02:31:40.168Z,9.4
2023-02-19T02:32:40.008Z,9.4
2023-02-19T02:33:39.986Z,9.4
2023-02-19T02:34:39.993Z,9.4
2023-02-19T02:35:39.993Z,9.4
2023-02-19T02:36:39.989Z,9.3
2023-02-19T02:37:40.002Z,9.3
2023-02-19T02:38:40.003Z,9.3
2023-02-19T02:39:39.996Z,9.3
2023-02-19T02:40:39.992Z,9.3
2023-02-19T02:41:39.986Z,9.3
2023-02-19T02:42:40.003Z,9.2
2023-02-19T02:43:39.987Z,9.2
2023-02-19T02:44:39.991Z,9.2
2023-02-19T02:45:40.133Z,9.2
2023-02-19T02:46:39.994Z,9.2
2023-02-19T02:47:40.019Z,9.2
2023-02-19T02:48:39.995Z,9.2
2023-02-19T02:49:39.993Z,9.2
2023-02-19T02:50:39.988Z,9.1
2023-02-19T02:51:39.991Z,9.1
2023-02-19T02:52:39.992Z,9.1
2023-02-19T02:53:39.982Z,9.1
2023-02-19T02:54:39.985Z,9.1
2023-02-19T02:55:39.988Z,9.1
2023-02-19T02:56:39.987Z,9.1
2023-02-19T02:57:39.987Z,9.1
2023-02-19T02:58:40.036Z,9.1
2023-02-19T02:59:39.986Z,9.1
2023-02-19T03:00:39.991Z,9.1
2023-02-19T03:01:39.992Z,9.1
2023-02-19T03:02:39.990Z,9
2023-02-19T03:03:39.985Z,9.1
2023-02-19T03:04:39.982Z,9.1
2023-02-19T03:05:39.992Z,9.1
2023-02-19T03:06:39.992Z,9.1
2023-02-19T03:07:39.983Z,9.1
2023-02-19T03:08:39.984Z,9.1
2023-02-19T03:09:39.983Z,9.1
2023-02-19T03:10:40.012Z,9.1
2023-02-19T03:11:39.985Z,9.1
2023-02-19T03:12:40.243Z,9.1
2023-02-19T03:13:39.982Z,9.1
2023-02-19T03:14:39.987Z,9.1
2023-02-19T03:15:40.010Z,9.1
2023-02-19T03:16:42.445Z,9.1
2023-02-19T03:17:39.991Z,9.1
2023-02-19T03:18:39.994Z,9.1
2023-02-19T03:19:39.990Z,9.1
2023-02-19T03:20:40.001Z,9.1
2023-02-19T03:21:39.984Z,9.1
2023-02-19T03:22:39.983Z,9.1
2023-02-19T03:23:39.984Z,9.1
2023-02-19T03:24:39.985Z,9
2023-02-19T03:25:40.011Z,9
2023-02-19T03:26:39.988Z,9
2023-02-19T03:27:39.989Z,9
2023-02-19T03:28:39.989Z,9
2023-02-19T03:29:40.004Z,9
2023-02-19T03:30:40.020Z,9
2023-02-19T03:31:40.091Z,9
2023-02-19T03:32:39.984Z,9
2023-02-19T03:33:39.991Z,9
2023-02-19T03:34:39.988Z,9
2023-02-19T03:35:40.008Z,9
2023-02-19T03:36:39.992Z,9
2023-02-19T03:37:39.993Z,9
2023-02-19T03:38:40.000Z,9
2023-02-19T03:39:39.987Z,9
2023-02-19T03:40:40.006Z,9
2023-02-19T03:41:39.988Z,9
2023-02-19T03:42:40.009Z,9
2023-02-19T03:43:39.987Z,9
2023-02-19T03:44:39.994Z,9
2023-02-19T03:45:40.067Z,9
2023-02-19T03:46:39.982Z,9
2023-02-19T03:47:39.982Z,9
2023-02-19T03:48:39.987Z,9
2023-02-19T03:49:39.988Z,9
2023-02-19T03:50:40.012Z,9
2023-02-19T03:51:39.988Z,9
2023-02-19T03:52:39.984Z,9
2023-02-19T03:53:39.986Z,9
2023-02-19T03:54:39.985Z,8.9
2023-02-19T03:55:40.004Z,8.9
2023-02-19T03:56:39.996Z,8.9
2023-02-19T03:57:39.989Z,8.9
2023-02-19T03:58:39.991Z,9
2023-02-19T03:59:40.003Z,8.9
2023-02-19T04:00:39.986Z,8.9
2023-02-19T04:01:39.987Z,9
2023-02-19T04:02:39.997Z,9
2023-02-19T04:03:39.998Z,9
2023-02-19T04:04:40.003Z,9
2023-02-19T04:05:39.998Z,9
2023-02-19T04:06:39.985Z,9
2023-02-19T04:07:39.999Z,9
2023-02-19T04:08:39.990Z,9
2023-02-19T04:09:40.004Z,9
2023-02-19T04:10:39.997Z,9
2023-02-19T04:11:39.995Z,9
2023-02-19T04:12:39.989Z,9
2023-02-19T04:13:39.989Z,9
2023-02-19T04:14:40.003Z,9
2023-02-19T04:15:39.995Z,9
2023-02-19T04:16:40.030Z,9
2023-02-19T04:17:39.989Z,9
2023-02-19T04:18:39.999Z,9
2023-02-19T04:19:39.987Z,9
2023-02-19T04:20:39.994Z,9
2023-02-19T04:21:39.992Z,9
2023-02-19T04:22:39.996Z,9
2023-02-19T04:23:40.002Z,9
2023-02-19T04:24:39.991Z,9
2023-02-19T04:25:40.000Z,9
2023-02-19T04:26:39.997Z,9
2023-02-19T04:27:40.183Z,9
2023-02-19T04:28:40.271Z,9
2023-02-19T04:29:39.990Z,8.9
2023-02-19T04:30:40.094Z,8.9
2023-02-19T04:31:40.018Z,8.9
2023-02-19T04:32:39.992Z,8.9
2023-02-19T04:33:39.989Z,8.9
2023-02-19T04:34:39.993Z,8.9
2023-02-19T04:35:39.982Z,8.8
2023-02-19T04:36:39.990Z,8.8
2023-02-19T04:37:39.990Z,8.7
2023-02-19T04:38:39.988Z,8.7
2023-02-19T04:39:39.987Z,8.7
2023-02-19T04:40:40.122Z,8.7
2023-02-19T04:41:40.518Z,8.6
2023-02-19T04:42:40.593Z,8.6
2023-02-19T04:43:39.987Z,8.6
2023-02-19T04:44:40.261Z,8.6
2023-02-19T04:45:40.146Z,8.6
2023-02-19T04:46:42.029Z,8.6
2023-02-19T04:47:40.027Z,8.6
2023-02-19T04:48:39.984Z,8.6
2023-02-19T04:49:40.009Z,8.6
2023-02-19T04:50:40.010Z,8.5
2023-02-19T04:51:40.267Z,8.5
2023-02-19T04:52:40.130Z,8.5
2023-02-19T04:53:40.009Z,8.5
2023-02-19T04:54:39.991Z,8.5
2023-02-19T04:55:39.993Z,8.5
2023-02-19T04:56:39.996Z,8.5
2023-02-19T04:57:40.252Z,8.5
2023-02-19T04:58:40.029Z,8.5
2023-02-19T04:59:40.250Z,8.5
2023-02-19T05:00:40.063Z,8.5
2023-02-19T05:01:40.282Z,8.4
2023-02-19T05:02:40.125Z,8.4
2023-02-19T05:03:40.010Z,8.4
2023-02-19T05:04:40.025Z,8.4
2023-02-19T05:05:40.001Z,8.4
2023-02-19T05:06:39.989Z,8.4
2023-02-19T05:07:39.988Z,8.4
2023-02-19T05:08:40.024Z,8.4
2023-02-19T05:09:39.989Z,8.4
2023-02-19T05:10:40.102Z,8.4
2023-02-19T05:11:39.986Z,8.4
2023-02-19T05:12:39.991Z,8.4
2023-02-19T05:13:40.029Z,8.4
2023-02-19T05:14:40.004Z,8.4
2023-02-19T05:15:40.013Z,8.4
2023-02-19T05:16:40.000Z,8.4
2023-02-19T05:17:40.007Z,8.4
2023-02-19T05:18:39.999Z,8.4
2023-02-19T05:19:39.986Z,8.4
2023-02-19T05:20:39.987Z,8.4
2023-02-19T05:21:39.987Z,8.4
2023-02-19T05:22:40.003Z,8.4
2023-02-19T05:23:40.025Z,8.4
2023-02-19T05:24:39.987Z,8.4
2023-02-19T05:25:40.243Z,8.4
2023-02-19T05:26:39.987Z,8.4
2023-02-19T05:27:40.003Z,8.4
2023-02-19T05:28:39.980Z,8.4
2023-02-19T05:29:39.987Z,8.4
2023-02-19T05:30:39.986Z,8.4
2023-02-19T05:31:40.217Z,8.5
2023-02-19T05:32:40.010Z,8.5
2023-02-19T05:33:39.984Z,8.5
2023-02-19T05:34:39.989Z,8.5
2023-02-19T05:35:39.988Z,8.5
2023-02-19T05:36:40.003Z,8.5
2023-02-19T05:37:40.017Z,8.5
2023-02-19T05:38:39.985Z,8.5
2023-02-19T05:39:39.988Z,8.5
2023-02-19T05:40:39.991Z,8.5
2023-02-19T05:41:39.980Z,8.5
2023-02-19T05:42:40.003Z,8.5
2023-02-19T05:43:39.984Z,8.5
2023-02-19T05:44:39.986Z,8.5
2023-02-19T05:45:39.987Z,8.5
2023-02-19T05:46:40.046Z,8.5
2023-02-19T05:47:39.996Z,8.5
2023-02-19T05:48:39.983Z,8.5
2023-02-19T05:49:39.982Z,8.5
2023-02-19T05:50:40.095Z,8.5
2023-02-19T05:51:39.988Z,8.5
2023-02-19T05:52:39.990Z,8.5
2023-02-19T05:53:39.989Z,8.5
2023-02-19T05:54:39.981Z,8.4
2023-02-19T05:55:39.983Z,8.4
2023-02-19T05:56:39.994Z,8.5
2023-02-19T05:57:42.500Z,8.5
2023-02-19T05:58:39.986Z,8.5
2023-02-19T05:59:39.988Z,8.5
2023-02-19T06:00:39.986Z,8.5
2023-02-19T06:01:39.982Z,8.5
2023-02-19T06:02:40.049Z,8.5
2023-02-19T06:03:40.145Z,8.5
2023-02-19T06:04:39.987Z,8.5
2023-02-19T06:05:39.988Z,8.5
2023-02-19T06:06:40.010Z,8.5
2023-02-19T06:07:39.984Z,8.5
2023-02-19T06:08:39.980Z,8.5
2023-02-19T06:09:39.979Z,8.5
2023-02-19T06:10:39.979Z,8.5
2023-02-19T06:11:39.984Z,8.5
2023-02-19T06:12:40.005Z,8.4
2023-02-19T06:13:39.994Z,8.4
2023-02-19T06:14:39.979Z,8.4
2023-02-19T06:15:39.988Z,8.4
2023-02-19T06:16:39.988Z,8.4
2023-02-19T06:17:39.984Z,8.4
2023-02-19T06:18:39.983Z,8.4
2023-02-19T06:19:39.982Z,8.4
2023-02-19T06:20:39.985Z,8.4
2023-02-19T06:21:39.985Z,8.4
2023-02-19T06:22:40.100Z,8.4
2023-02-19T06:23:39.985Z,8.4
2023-02-19T06:24:39.988Z,8.4
2023-02-19T06:25:40.002Z,8.4
2023-02-19T06:26:39.997Z,8.4
2023-02-19T06:27:40.007Z,8.4
2023-02-19T06:28:39.982Z,8.4
2023-02-19T06:29:39.988Z,8.4
2023-02-19T06:30:39.990Z,8.4
2023-02-19T06:31:40.173Z,8.4
2023-02-19T06:32:40.010Z,8.4
2023-02-19T06:33:40.075Z,8.4
2023-02-19T06:34:39.990Z,8.4
2023-02-19T06:35:39.993Z,8.4
2023-02-19T06:36:39.983Z,8.4
2023-02-19T06:37:40.014Z,8.4
2023-02-19T06:38:39.999Z,8.4
2023-02-19T06:39:39.985Z,8.4
2023-02-19T06:40:39.985Z,8.4
2023-02-19T06:41:39.990Z,8.4
2023-02-19T06:42:39.998Z,8.4
2023-02-19T06:43:40.002Z,8.4
2023-02-19T06:44:39.990Z,8.4
2023-02-19T06:45:40.191Z,8.4
2023-02-19T06:46:40.619Z,8.4
2023-02-19T06:47:40.761Z,8.4
2023-02-19T06:48:40.438Z,8.4
2023-02-19T06:49:39.990Z,8.4
2023-02-19T06:50:40.116Z,8.4
2023-02-19T06:51:39.993Z,8.4
2023-02-19T06:52:40.010Z,8.4
2023-02-19T06:53:39.987Z,8.4
2023-02-19T06:54:39.995Z,8.4
2023-02-19T06:55:39.987Z,8.4
2023-02-19T06:56:39.994Z,8.4
2023-02-19T06:57:40.007Z,8.4
2023-02-19T06:58:39.988Z,8.4
2023-02-19T06:59:39.991Z,8.4
2023-02-19T07:00:40.001Z,8.4
2023-02-19T07:01:39.988Z,8.4
2023-02-19T07:02:39.996Z,8.4
2023-02-19T07:03:39.986Z,8.4
2023-02-19T07:04:39.985Z,8.4
2023-02-19T07:05:39.987Z,8.4
2023-02-19T07:06:39.984Z,8.4
2023-02-19T07:07:39.996Z,8.4
2023-02-19T07:08:39.989Z,8.4
2023-02-19T07:09:39.993Z,8.4
2023-02-19T07:10:39.987Z,8.4
2023-02-19T07:11:39.988Z,8.4
2023-02-19T07:12:39.991Z,8.4
2023-02-19T07:13:39.983Z,8.4
2023-02-19T07:14:39.991Z,8.4
2023-02-19T07:15:39.997Z,8.4
2023-02-19T07:16:40.021Z,8.4
2023-02-19T07:17:39.987Z,8.4
2023-02-19T07:18:39.986Z,8.4
2023-02-19T07:19:39.997Z,8.4
2023-02-19T07:20:39.989Z,8.4
2023-02-19T07:21:39.993Z,8.4
2023-02-19T07:22:39.985Z,8.4
2023-02-19T07:23:39.986Z,8.4
2023-02-19T07:24:39.991Z,8.4
2023-02-19T07:25:39.986Z,8.4
2023-02-19T07:26:39.998Z,8.4
2023-02-19T07:27:39.983Z,8.4
2023-02-19T07:28:39.989Z,8.4
2023-02-19T07:29:39.983Z,8.4
2023-02-19T07:30:40.073Z,8.4
2023-02-19T07:31:40.012Z,8.4
2023-02-19T07:32:39.986Z,8.4
2023-02-19T07:33:39.998Z,8.4
2023-02-19T07:34:39.989Z,8.4
2023-02-19T07:35:39.980Z,8.4
2023-02-19T07:36:39.983Z,8.4
2023-02-19T07:37:39.991Z,8.4
2023-02-19T07:38:40.010Z,8.4
2023-02-19T07:39:39.986Z,8.4
2023-02-19T07:40:39.988Z,8.4
2023-02-19T07:41:39.985Z,8.4
2023-02-19T07:42:40.013Z,8.4
2023-02-19T07:43:39.998Z,8.4
2023-02-19T07:44:40.082Z,8.4
2023-02-19T07:45:40.010Z,8.4
2023-02-19T07:46:40.004Z,8.4
2023-02-19T07:47:40.007Z,8.4
2023-02-19T07:48:39.992Z,8.4
2023-02-19T07:49:39.997Z,8.4
2023-02-19T07:50:40.040Z,8.4
2023-02-19T07:51:40.000Z,8.4
2023-02-19T07:52:39.990Z,8.4
2023-02-19T07:53:40.002Z,8.4
2023-02-19T07:54:39.993Z,8.4
2023-02-19T07:55:39.988Z,8.4
2023-02-19T07:56:39.993Z,8.4
2023-02-19T07:57:40.010Z,8.4
2023-02-19T07:58:40.089Z,8.4
2023-02-19T07:59:39.986Z,8.4
2023-02-19T08:00:39.988Z,8.4
2023-02-19T08:01:39.992Z,8.4
2023-02-19T08:02:40.037Z,8.4
2023-02-19T08:03:40.373Z,8.4
2023-02-19T08:04:39.990Z,8.4
2023-02-19T08:05:39.985Z,8.4
2023-02-19T08:06:39.986Z,8.4
2023-02-19T08:07:39.995Z,8.4
2023-02-19T08:08:40.025Z,8.4
2023-02-19T08:09:40.013Z,8.4
2023-02-19T08:10:39.985Z,8.4
2023-02-19T08:11:40.027Z,8.4
2023-02-19T08:12:39.985Z,8.4
2023-02-19T08:13:40.070Z,8.4
2023-02-19T08:14:40.356Z,8.4
2023-02-19T08:15:40.475Z,8.4
2023-02-19T08:16:43.156Z,8.4
2023-02-19T08:17:40.282Z,8.4
2023-02-19T08:18:40.180Z,8.4
2023-02-19T08:19:39.989Z,8.4
2023-02-19T08:20:39.984Z,8.4
2023-02-19T08:21:40.022Z,8.4
2023-02-19T08:22:40.003Z,8.4
2023-02-19T08:23:39.995Z,8.4
2023-02-19T08:24:39.992Z,8.4
2023-02-19T08:25:40.221Z,8.4
2023-02-19T08:26:40.264Z,8.4
2023-02-19T08:27:40.081Z,8.5
2023-02-19T08:28:40.263Z,8.5
2023-02-19T08:29:39.987Z,8.5
2023-02-19T08:30:40.110Z,8.5
2023-02-19T08:31:40.221Z,8.5
2023-02-19T08:32:40.276Z,8.5
2023-02-19T08:33:40.044Z,8.6
2023-02-19T08:34:40.304Z,8.6
2023-02-19T08:35:40.242Z,8.6
2023-02-19T08:36:40.303Z,8.6
2023-02-19T08:37:40.156Z,8.6
2023-02-19T08:38:40.372Z,8.6
2023-02-19T08:39:40.137Z,8.6
2023-02-19T08:40:40.268Z,8.6
2023-02-19T08:41:39.983Z,8.6
2023-02-19T08:42:39.998Z,8.6
2023-02-19T08:43:39.987Z,8.6
2023-02-19T08:44:40.029Z,8.7
2023-02-19T08:45:40.192Z,8.7
2023-02-19T08:46:39.982Z,8.7
2023-02-19T08:47:40.019Z,8.7
2023-02-19T08:48:40.012Z,8.8
2023-02-19T08:49:40.000Z,8.8
2023-02-19T08:50:40.004Z,8.9
2023-02-19T08:51:39.987Z,8.9
2023-02-19T08:52:40.012Z,8.9
2023-02-19T08:53:40.094Z,9
2023-02-19T08:54:39.983Z,9
2023-02-19T08:55:39.988Z,9
2023-02-19T08:56:39.985Z,9
2023-02-19T08:57:40.009Z,9
2023-02-19T08:58:40.009Z,9.1
2023-02-19T08:59:39.985Z,9.1
2023-02-19T09:00:39.986Z,9.1
2023-02-19T09:01:39.991Z,9.2
2023-02-19T09:02:39.991Z,9.2
2023-02-19T09:03:39.986Z,9.2
2023-02-19T09:04:39.989Z,9.2
2023-02-19T09:05:39.994Z,9.2
2023-02-19T09:06:40.194Z,9.2
2023-02-19T09:07:40.373Z,9.2
2023-02-19T09:08:39.990Z,9.2
2023-02-19T09:09:39.978Z,9.2
2023-02-19T09:10:39.986Z,9.3
2023-02-19T09:11:39.991Z,9.3
2023-02-19T09:12:40.019Z,9.3
2023-02-19T09:13:39.980Z,9.3
2023-02-19T09:14:39.983Z,9.3
2023-02-19T09:15:40.037Z,9.4
2023-02-19T09:16:39.978Z,9.4
2023-02-19T09:17:39.991Z,9.4
2023-02-19T09:18:40.005Z,9.4
2023-02-19T09:19:39.988Z,9.4
2023-02-19T09:20:40.188Z,9.4
2023-02-19T09:21:40.201Z,9.4
2023-02-19T09:22:39.983Z,9.4
2023-02-19T09:23:39.996Z,9.4
2023-02-19T09:24:40.002Z,9.4
2023-02-19T09:25:39.981Z,9.4
2023-02-19T09:26:39.991Z,9.3
2023-02-19T09:27:40.014Z,9.3
2023-02-19T09:28:40.002Z,9.2
2023-02-19T09:29:39.985Z,9.2
2023-02-19T09:30:40.055Z,9.2
2023-02-19T09:31:40.103Z,9.2
2023-02-19T09:32:39.998Z,9.2
2023-02-19T09:33:39.992Z,9.2
2023-02-19T09:34:39.993Z,9.2
2023-02-19T09:35:40.085Z,9.2
2023-02-19T09:36:39.991Z,9.2
2023-02-19T09:37:40.013Z,9.3
2023-02-19T09:38:39.985Z,9.3
2023-02-19T09:39:39.984Z,9.3
2023-02-19T09:40:39.989Z,9.3
2023-02-19T09:41:39.989Z,9.4
2023-02-19T09:42:40.010Z,9.4
2023-02-19T09:43:39.993Z,9.4
2023-02-19T09:44:40.003Z,9.4
2023-02-19T09:45:39.993Z,9.4
2023-02-19T09:46:39.991Z,9.5
2023-02-19T09:47:40.013Z,9.5
2023-02-19T09:48:39.991Z,9.5
2023-02-19T09:49:40.004Z,9.4
2023-02-19T09:50:39.991Z,9.4
2023-02-19T09:51:39.988Z,9.4
2023-02-19T09:52:40.013Z,9.2
2023-02-19T09:53:40.011Z,9
2023-02-19T09:54:39.989Z,8.9
2023-02-19T09:55:39.989Z,8.7
2023-02-19T09:56:40.046Z,8.6
2023-02-19T09:57:39.997Z,8.4
2023-02-19T09:58:39.983Z,8.3
2023-02-19T09:59:39.994Z,8.2
2023-02-19T10:00:39.985Z,8
2023-02-19T10:01:40.028Z,7.9
2023-02-19T10:02:40.008Z,7.7
2023-02-19T10:03:40.127Z,7.7
2023-02-19T10:04:39.986Z,7.5
2023-02-19T10:05:40.010Z,7.4
2023-02-19T10:06:39.988Z,7.3
2023-02-19T10:07:40.011Z,7.2
2023-02-19T10:08:39.983Z,7.2
2023-02-19T10:09:39.987Z,7.1
2023-02-19T10:10:39.988Z,7.1
2023-02-19T10:11:39.980Z,7
2023-02-19T10:12:39.994Z,6.9
2023-02-19T10:13:39.984Z,6.8
2023-02-19T10:14:39.986Z,6.7
2023-02-19T10:15:40.043Z,6.7
2023-02-19T10:16:39.991Z,6.6
2023-02-19T10:17:40.026Z,6.6
2023-02-19T10:18:39.996Z,6.6
2023-02-19T10:19:39.981Z,6.6
2023-02-19T10:20:40.178Z,6.6
2023-02-19T10:21:40.484Z,6.6
2023-02-19T10:22:40.739Z,6.6
2023-02-19T10:23:39.982Z,6.6
2023-02-19T10:24:39.997Z,6.5
2023-02-19T10:25:40.255Z,6.5
2023-02-19T10:26:39.991Z,6.5
2023-02-19T10:27:40.001Z,6.5
2023-02-19T10:28:39.992Z,6.5
2023-02-19T10:29:39.982Z,6.5
2023-02-19T10:30:39.986Z,6.5
2023-02-19T10:31:40.066Z,6.5
2023-02-19T10:32:40.007Z,6.5
2023-02-19T10:33:39.982Z,6.5
2023-02-19T10:34:39.984Z,6.5
2023-02-19T10:35:40.050Z,6.5
2023-02-19T10:36:39.985Z,6.5
2023-02-19T10:37:40.001Z,6.5
2023-02-19T10:38:40.001Z,6.5
2023-02-19T10:39:39.993Z,6.5
2023-02-19T10:40:39.989Z,6.5
2023-02-19T10:41:41.087Z,6.5
2023-02-19T10:42:40.011Z,6.5
2023-02-19T10:43:40.017Z,6.5
2023-02-19T10:44:39.995Z,6.5
2023-02-19T10:45:39.986Z,6.5
2023-02-19T10:46:40.029Z,6.5
2023-02-19T10:47:40.009Z,6.4
2023-02-19T10:48:40.001Z,6.5
2023-02-19T10:49:40.000Z,6.4
2023-02-19T10:50:39.985Z,6.4
2023-02-19T10:51:39.997Z,6.4
2023-02-19T10:52:39.995Z,6.4
2023-02-19T10:53:39.987Z,6.5
2023-02-19T10:54:39.987Z,6.5
2023-02-19T10:55:39.985Z,6.5
2023-02-19T10:56:39.984Z,6.5
2023-02-19T10:57:39.990Z,6.6
2023-02-19T10:58:39.982Z,6.6
2023-02-19T10:59:39.981Z,6.6
2023-02-19T11:00:39.985Z,6.6
2023-02-19T11:01:40.007Z,6.6
2023-02-19T11:02:39.980Z,6.6
2023-02-19T11:03:39.988Z,6.6
2023-02-19T11:04:40.007Z,6.6
2023-02-19T11:05:39.980Z,6.6
2023-02-19T11:06:39.994Z,6.5
2023-02-19T11:07:39.985Z,6.5
2023-02-19T11:08:39.985Z,6.5
2023-02-19T11:09:39.986Z,6.5
2023-02-19T11:10:39.997Z,6.6
2023-02-19T11:11:40.079Z,6.6
2023-02-19T11:12:39.985Z,6.6
2023-02-19T11:13:39.985Z,6.6
2023-02-19T11:14:39.978Z,6.6
2023-02-19T11:15:39.994Z,6.7
2023-02-19T11:16:39.981Z,6.7
2023-02-19T11:17:39.992Z,6.8
2023-02-19T11:18:39.981Z,6.8
2023-02-19T11:19:40.004Z,6.9
2023-02-19T11:20:39.986Z,6.9
2023-02-19T11:21:39.985Z,7
2023-02-19T11:22:40.019Z,7
2023-02-19T11:23:40.010Z,7
2023-02-19T11:24:39.983Z,7
2023-02-19T11:25:40.092Z,7.1
2023-02-19T11:26:39.982Z,7
2023-02-19T11:27:39.982Z,7
2023-02-19T11:28:39.985Z,7
2023-02-19T11:29:39.988Z,7.1
2023-02-19T11:30:40.055Z,7.1
2023-02-19T11:31:40.024Z,7
2023-02-19T11:32:39.984Z,7.1
2023-02-19T11:33:39.985Z,7
2023-02-19T11:34:39.984Z,7.1
2023-02-19T11:35:39.993Z,7
2023-02-19T11:36:39.989Z,7.1
2023-02-19T11:37:40.252Z,7.1
2023-02-19T11:38:39.987Z,7.1
2023-02-19T11:39:40.043Z,7.1
2023-02-19T11:40:39.986Z,7
2023-02-19T11:41:39.988Z,7
2023-02-19T11:42:39.988Z,7.1
2023-02-19T11:43:39.996Z,7.1
2023-02-19T11:44:39.981Z,7.1
2023-02-19T11:45:39.988Z,7.1
2023-02-19T11:46:40.033Z,7.2
2023-02-19T11:47:40.235Z,7.2
2023-02-19T11:48:40.464Z,7.2
2023-02-19T11:49:40.007Z,7.2
2023-02-19T11:50:40.223Z,7.2
2023-02-19T11:51:40.035Z,7.2
2023-02-19T11:52:40.302Z,7.2
2023-02-19T11:53:39.986Z,7.2
2023-02-19T11:54:39.992Z,7.2
2023-02-19T11:55:39.983Z,7.2
2023-02-19T11:56:39.996Z,7.2
2023-02-19T11:57:40.008Z,7.2
2023-02-19T11:58:39.997Z,7.3
2023-02-19T11:59:40.162Z,7.3
2023-02-19T12:00:40.158Z,7.4
2023-02-19T12:01:40.021Z,7.4
2023-02-19T12:02:40.147Z,7.4
2023-02-19T12:03:39.988Z,7.5
2023-02-19T12:04:40.258Z,7.5
2023-02-19T12:05:40.219Z,7.5
2023-02-19T12:06:40.037Z,7.6
2023-02-19T12:07:40.282Z,7.6
2023-02-19T12:08:39.997Z,7.6
2023-02-19T12:09:40.039Z,7.7
2023-02-19T12:10:40.255Z,7.7
2023-02-19T12:11:40.046Z,7.7
2023-02-19T12:12:40.272Z,7.7
2023-02-19T12:13:39.985Z,7.7
2023-02-19T12:14:40.014Z,7.7
2023-02-19T12:15:40.006Z,7.7
2023-02-19T12:16:40.037Z,7.7
2023-02-19T12:17:39.990Z,7.7
2023-02-19T12:18:39.984Z,7.7
2023-02-19T12:19:40.018Z,7.7
2023-02-19T12:20:40.081Z,7.7
2023-02-19T12:21:39.991Z,7.7
2023-02-19T12:22:39.987Z,7.7
2023-02-19T12:23:39.988Z,7.7
2023-02-19T12:24:40.010Z,7.7
2023-02-19T12:25:39.995Z,7.7
2023-02-19T12:26:40.273Z,7.7
2023-02-19T12:27:39.989Z,7.7
2023-02-19T12:28:39.984Z,7.7
2023-02-19T12:29:39.994Z,7.7
2023-02-19T12:30:40.014Z,7.7
2023-02-19T12:31:40.021Z,7.7
2023-02-19T12:32:39.981Z,7.7
2023-02-19T12:33:39.991Z,7.7
2023-02-19T12:34:39.986Z,7.7
2023-02-19T12:35:40.003Z,7.8
2023-02-19T12:36:39.979Z,7.8
2023-02-19T12:37:39.991Z,7.8
2023-02-19T12:38:39.994Z,7.8
2023-02-19T12:39:40.104Z,7.9
2023-02-19T12:40:40.015Z,7.9
2023-02-19T12:41:39.981Z,7.9
2023-02-19T12:42:39.988Z,7.9
2023-02-19T12:43:39.981Z,7.9
2023-02-19T12:44:39.979Z,7.9
2023-02-19T12:45:40.024Z,7.9
2023-02-19T12:46:39.993Z,7.9
2023-02-19T12:47:40.092Z,7.9
2023-02-19T12:48:39.988Z,7.8
2023-02-19T12:49:39.985Z,7.8
2023-02-19T12:50:39.985Z,7.8
2023-02-19T12:51:39.991Z,7.8
2023-02-19T12:52:39.985Z,7.7
2023-02-19T12:53:39.996Z,7.7
2023-02-19T12:54:40.000Z,7.7
2023-02-19T12:55:40.042Z,7.7
2023-02-19T12:56:39.985Z,7.7
2023-02-19T12:57:39.994Z,7.7
2023-02-19T12:58:39.994Z,7.6
2023-02-19T12:59:39.991Z,7.6
2023-02-19T13:00:40.012Z,7.6
2023-02-19T13:01:39.992Z,7.5
2023-02-19T13:02:40.020Z,7.5
2023-02-19T13:03:39.983Z,7.5
2023-02-19T13:04:40.082Z,7.5
2023-02-19T13:05:40.015Z,7.5
2023-02-19T13:06:39.993Z,7.5
2023-02-19T13:07:39.987Z,7.5
2023-02-19T13:08:45.309Z,7.5
2023-02-19T13:09:39.990Z,7.5
2023-02-19T13:10:40.013Z,7.5
2023-02-19T13:11:40.092Z,7.5
2023-02-19T13:12:39.990Z,7.5
2023-02-19T13:13:39.991Z,7.6
2023-02-19T13:14:39.988Z,7.5
2023-02-19T13:15:40.003Z,7.5
2023-02-19T13:16:40.021Z,7.5
2023-02-19T13:17:39.998Z,7.5
2023-02-19T13:18:40.031Z,7.4
2023-02-19T13:19:39.993Z,7.4
2023-02-19T13:20:39.988Z,7.4
2023-02-19T13:21:39.990Z,7.4
2023-02-19T13:22:39.989Z,7.4
2023-02-19T13:23:40.008Z,7.4
2023-02-19T13:24:39.993Z,7.3
2023-02-19T13:25:39.985Z,7.3
2023-02-19T13:26:39.993Z,7.3
2023-02-19T13:27:41.659Z,7.3
2023-02-19T13:28:39.998Z,7.3
2023-02-19T13:29:39.991Z,7.3
2023-02-19T13:30:40.026Z,7.3
2023-02-19T13:31:40.092Z,7.3
2023-02-19T13:32:39.985Z,7.3
2023-02-19T13:33:40.073Z,7.3
2023-02-19T13:34:39.988Z,7.3
2023-02-19T13:35:40.012Z,7.3
2023-02-19T13:36:39.995Z,7.3
2023-02-19T13:37:39.998Z,7.3
2023-02-19T13:38:39.985Z,7.4
2023-02-19T13:39:40.009Z,7.3
2023-02-19T13:40:39.992Z,7.3
2023-02-19T13:41:39.990Z,7.3
2023-02-19T13:42:39.989Z,7.3
2023-02-19T13:43:39.998Z,7.3
2023-02-19T13:44:39.994Z,7.3
2023-02-19T13:45:39.985Z,7.3
2023-02-19T13:46:39.992Z,7.3
2023-02-19T13:47:39.986Z,7.3
2023-02-19T13:48:39.990Z,7.3
2023-02-19T13:49:39.995Z,7.4
2023-02-19T13:50:39.989Z,7.4
2023-02-19T13:51:39.989Z,7.4